createdAt,value
2023-03-29T00:01:35.894Z,100703.94
2023-03-29T00:04:39.112Z,100763.75
2023-03-29T00:07:42.637Z,100666.78
2023-03-29T00:10:48.817Z,100814.34
2023-03-29T00:13:51.462Z,100760.53
2023-03-29T00:16:53.992Z,100679.50
2023-03-29T00:19:57.270Z,100784.78
2023-03-29T00:23:00.588Z,100737.75
2023-03-29T00:26:05.225Z,100841.03
2023-03-29T00:29:10.100Z,100833.16
2023-03-29T00:32:13.921Z,100819.22
2023-03-29T00:35:20.111Z,100853.19
2023-03-29T00:38:23.671Z,100726.34
2023-03-29T00:41:26.784Z,100812.00
2023-03-29T00:44:54.696Z,100843.56
2023-03-29T00:48:05.834Z,100789.88
2023-03-29T00:51:11.884Z,100733.13
2023-03-29T00:54:18.852Z,100816.53
2023-03-29T00:57:23.763Z,100780.69
2023-03-29T01:00:35.547Z,100735.34
2023-03-29T01:03:54.803Z,100790.69
2023-03-29T01:07:06.427Z,100753.22
2023-03-29T01:10:16.092Z,100747.03
2023-03-29T01:13:27.772Z,100795.22
2023-03-29T01:16:36.094Z,100665.78
2023-03-29T01:19:44.442Z,100756.53
2023-03-29T01:23:27.386Z,100818.06
2023-03-29T01:26:54.482Z,100814.31
2023-03-29T01:30:04.283Z,100735.47
2023-03-29T01:33:14.686Z,100770.22
2023-03-29T01:37:00.437Z,100779.75
2023-03-29T01:40:05.222Z,100769.88
2023-03-29T01:43:31.451Z,100805.34
2023-03-29T01:46:45.602Z,100820.84
2023-03-29T01:50:01.629Z,100746.13
2023-03-29T01:53:11.269Z,100709.09
2023-03-29T01:56:18.710Z,100801.94
2023-03-29T01:59:29.026Z,100781.69
2023-03-29T02:02:34.519Z,100820.06
2023-03-29T02:05:42.472Z,100816.38
2023-03-29T02:08:47.304Z,100795.34
2023-03-29T02:11:52.484Z,100801.47
2023-03-29T02:14:56.647Z,100784.84
2023-03-29T02:17:59.838Z,100763.00
2023-03-29T02:21:02.928Z,100820.97
2023-03-29T02:24:10.828Z,100777.19
2023-03-29T02:27:13.444Z,100830.91
2023-03-29T02:30:19.383Z,100804.53
2023-03-29T02:33:42.198Z,100841.31
2023-03-29T02:36:50.495Z,100814.22
2023-03-29T02:39:53.969Z,100815.09
2023-03-29T02:42:59.253Z,100837.72
2023-03-29T02:46:03.170Z,100846.72
2023-03-29T02:49:06.387Z,100848.53
2023-03-29T02:52:22.763Z,100818.03
2023-03-29T02:55:31.906Z,100832.13
2023-03-29T02:58:36.767Z,100732.28
2023-03-29T03:01:43.355Z,100803.38
2023-03-29T03:04:45.690Z,100806.94
2023-03-29T03:07:48.330Z,100847.34
2023-03-29T03:10:51.423Z,100733.50
2023-03-29T03:13:55.007Z,100857.81
2023-03-29T03:17:00.703Z,100804.19
2023-03-29T03:20:09.375Z,100839.28
2023-03-29T03:23:12.146Z,100834.69
2023-03-29T03:26:16.401Z,100865.88
2023-03-29T03:29:19.731Z,100886.78
2023-03-29T03:32:45.320Z,100895.34
2023-03-29T03:36:12.105Z,100855.38
2023-03-29T03:39:18.284Z,100919.16
2023-03-29T03:42:22.142Z,100844.41
2023-03-29T03:45:24.939Z,100907.47
2023-03-29T03:48:33.927Z,100864.56
2023-03-29T03:51:45.543Z,100868.31
2023-03-29T03:54:50.809Z,100864.91
2023-03-29T03:58:13.841Z,100918.47
2023-03-29T04:01:17.216Z,100887.88
2023-03-29T04:04:29.628Z,100926.47
2023-03-29T04:07:39.036Z,100826.41
2023-03-29T04:11:00.381Z,100911.41
2023-03-29T04:14:12.904Z,100874.97
2023-03-29T04:17:42.117Z,100941.47
2023-03-29T04:21:06.837Z,100916.81
2023-03-29T04:24:12.933Z,100910.38
2023-03-29T04:27:19.280Z,100905.91
2023-03-29T04:30:22.698Z,100941.81
2023-03-29T04:34:03.847Z,100930.38
2023-03-29T04:37:11.002Z,100916.31
2023-03-29T04:40:15.002Z,100888.34
2023-03-29T04:43:39.647Z,100949.75
2023-03-29T04:46:49.960Z,100921.59
2023-03-29T04:50:17.214Z,100933.84
2023-03-29T04:53:21.565Z,100952.34
2023-03-29T04:56:26.895Z,100922.66
2023-03-29T04:59:48.314Z,100958.00
2023-03-29T05:03:01.088Z,100937.69
2023-03-29T05:06:10.481Z,100971.91
2023-03-29T05:09:14.992Z,100856.13
2023-03-29T05:12:26.179Z,100974.53
2023-03-29T05:15:29.844Z,100937.06
2023-03-29T05:18:32.953Z,100908.28
2023-03-29T05:21:35.935Z,100960.16
2023-03-29T05:24:42.703Z,100884.09
2023-03-29T05:27:53.174Z,100973.75
2023-03-29T05:31:05.488Z,100962.44
2023-03-29T05:34:11.055Z,100951.19
2023-03-29T05:37:19.342Z,100961.81
2023-03-29T05:40:27.293Z,100910.09
2023-03-29T05:43:59.137Z,100987.41
2023-03-29T05:47:03.705Z,100941.94
2023-03-29T05:50:10.362Z,100943.06
2023-03-29T05:53:13.188Z,100983.59
2023-03-29T05:56:17.036Z,100946.19
2023-03-29T05:59:20.246Z,100982.81
2023-03-29T06:02:25.350Z,100994.97
2023-03-29T06:05:28.670Z,100994.50
2023-03-29T06:08:37.018Z,100967.53
2023-03-29T06:11:59.572Z,100998.34
2023-03-29T06:15:13.356Z,101000.34
2023-03-29T06:18:20.714Z,101004.09
2023-03-29T06:21:24.846Z,100951.00
2023-03-29T06:24:27.153Z,101004.97
2023-03-29T06:27:37.957Z,101009.78
2023-03-29T06:30:42.076Z,101006.25
2023-03-29T06:33:45.032Z,100994.13
2023-03-29T06:37:19.446Z,100979.19
2023-03-29T06:40:27.467Z,101016.84
2023-03-29T06:43:30.180Z,101011.03
2023-03-29T06:46:42.568Z,100990.13
2023-03-29T06:49:44.528Z,100989.38
2023-03-29T06:53:04.645Z,101024.50
2023-03-29T06:56:09.463Z,100965.28
2023-03-29T06:59:16.458Z,101005.97
2023-03-29T07:02:29.363Z,101034.63
2023-03-29T07:05:41.346Z,101039.59
2023-03-29T07:08:52.376Z,101055.09
2023-03-29T07:12:07.742Z,101012.13
2023-03-29T07:15:11.461Z,101033.22
2023-03-29T07:18:33.984Z,101002.53
2023-03-29T07:21:37.955Z,101062.03
2023-03-29T07:24:41.121Z,101008.50
2023-03-29T07:27:44.058Z,101071.13
2023-03-29T07:30:47.061Z,101004.28
2023-03-29T07:33:54.060Z,101010.94
2023-03-29T07:36:57.698Z,100982.47
2023-03-29T07:40:04.111Z,101002.28
2023-03-29T07:43:14.672Z,100962.66
2023-03-29T07:46:17.743Z,100971.81
2023-03-29T07:49:22.124Z,101062.84
2023-03-29T07:52:25.183Z,101029.72
2023-03-29T07:55:28.097Z,101071.72
2023-03-29T07:58:38.313Z,101068.31
2023-03-29T08:01:44.040Z,101073.63
2023-03-29T08:05:00.774Z,101000.97
2023-03-29T08:08:19.280Z,101027.13
2023-03-29T08:11:33.233Z,101001.00
2023-03-29T08:14:39.342Z,101028.13
2023-03-29T08:17:50.402Z,101054.34
2023-03-29T08:20:56.021Z,101016.03
2023-03-29T08:23:58.697Z,101054.66
2023-03-29T08:27:08.728Z,101011.00
2023-03-29T08:30:12.282Z,100962.97
2023-03-29T08:33:14.993Z,101060.94
2023-03-29T08:36:18.928Z,101039.91
2023-03-29T08:39:23.596Z,101055.66
2023-03-29T08:42:50.233Z,101023.28
2023-03-29T08:46:35.328Z,101010.19
2023-03-29T08:49:54.887Z,101011.03
2023-03-29T08:53:08.323Z,101028.50
2023-03-29T08:56:34.722Z,101030.16
2023-03-29T08:59:45.695Z,101058.00
2023-03-29T09:02:54.415Z,101034.38
2023-03-29T09:06:06.829Z,101030.00
2023-03-29T09:09:20.151Z,101063.13
2023-03-29T09:12:35.825Z,101007.06
2023-03-29T09:16:14.401Z,101063.00
2023-03-29T09:19:36.369Z,101028.09
2023-03-29T09:22:52.435Z,101056.97
2023-03-29T09:26:12.430Z,101042.13
2023-03-29T09:30:03.303Z,101064.84
2023-03-29T09:33:31.632Z,101065.66
2023-03-29T09:36:52.990Z,101024.66
2023-03-29T09:39:58.340Z,101024.66
2023-03-29T09:43:25.458Z,101007.25
2023-03-29T09:47:00.833Z,100905.06
2023-03-29T09:50:30.328Z,100960.09
2023-03-29T09:53:35.494Z,100999.44
2023-03-29T09:56:56.702Z,100994.19
2023-03-29T10:00:06.227Z,101040.53
2023-03-29T10:03:29.954Z,101009.97
2023-03-29T10:06:52.837Z,101022.31
2023-03-29T10:09:59.075Z,101014.47
2023-03-29T10:13:06.062Z,101038.03
2023-03-29T10:16:17.247Z,101029.38
2023-03-29T10:19:24.163Z,101004.09
2023-03-29T10:22:33.487Z,101046.00
2023-03-29T10:25:43.119Z,101032.13
2023-03-29T10:28:46.159Z,100994.50
2023-03-29T10:31:48.813Z,100985.69
2023-03-29T10:34:52.618Z,100985.75
2023-03-29T10:37:58.366Z,100942.19
2023-03-29T10:41:10.881Z,101007.78
2023-03-29T10:44:33.229Z,101011.28
2023-03-29T10:47:36.428Z,100971.03
2023-03-29T10:50:39.412Z,101011.31
2023-03-29T10:53:42.517Z,100986.91
2023-03-29T10:57:00.528Z,100967.75
2023-03-29T11:00:16.121Z,100998.41
2023-03-29T11:03:41.058Z,100983.56
2023-03-29T11:07:11.392Z,100988.78
2023-03-29T11:11:03.990Z,100955.63
2023-03-29T11:14:47.774Z,100992.28
2023-03-29T11:18:03.206Z,100957.44
2023-03-29T11:21:34.682Z,100942.59
2023-03-29T11:25:03.602Z,100938.25
2023-03-29T11:28:27.446Z,100963.63
2023-03-29T11:32:17.769Z,100967.94
2023-03-29T11:35:56.932Z,100928.72
2023-03-29T11:39:53.601Z,100959.25
2023-03-29T11:47:07.852Z,100945.28
2023-03-29T11:50:38.867Z,100941.81
2023-03-29T11:53:56.760Z,100942.69
2023-03-29T11:57:08.609Z,100933.97
2023-03-29T12:00:32.013Z,100955.78
2023-03-29T12:03:46.729Z,100847.63
2023-03-29T12:07:19.490Z,100930.50
2023-03-29T12:10:27.472Z,100908.66
2023-03-29T12:13:35.921Z,100907.81
2023-03-29T12:16:47.799Z,100910.41
2023-03-29T12:20:15.279Z,100908.66
2023-03-29T12:23:21.292Z,100876.41
2023-03-29T12:26:27.840Z,100919.97
2023-03-29T12:29:44.069Z,100928.72
2023-03-29T12:32:56.863Z,100924.34
2023-03-29T12:37:02.339Z,100886.81
2023-03-29T12:40:23.008Z,100885.97
2023-03-29T12:43:49.684Z,100880.69
2023-03-29T12:47:03.051Z,100853.69
2023-03-29T12:50:15.608Z,100907.69
2023-03-29T12:53:51.799Z,100906.75
2023-03-29T12:57:00.513Z,100910.22
2023-03-29T13:00:27.898Z,100850.13
2023-03-29T13:03:43.061Z,100862.28
2023-03-29T13:06:48.274Z,100897.03
2023-03-29T13:09:58.622Z,100882.22
2023-03-29T13:13:22.423Z,100887.38
2023-03-29T13:16:34.906Z,100874.34
2023-03-29T13:19:59.225Z,100896.06
2023-03-29T13:23:42.920Z,100876.88
2023-03-29T13:27:05.054Z,100856.00
2023-03-29T13:30:20.120Z,100814.16
2023-03-29T13:33:50.185Z,100885.56
2023-03-29T13:37:23.265Z,100888.16
2023-03-29T13:40:43.922Z,100888.16
2023-03-29T13:43:46.124Z,100888.19
2023-03-29T13:46:48.918Z,100882.97
2023-03-29T13:49:58.304Z,100836.84
2023-03-29T13:53:13.087Z,100843.75
2023-03-29T13:56:57.178Z,100878.53
2023-03-29T14:00:18.259Z,100882.84
2023-03-29T14:03:30.109Z,100877.59
2023-03-29T14:06:36.717Z,100869.84
2023-03-29T14:09:44.059Z,100863.75
2023-03-29T14:12:46.750Z,100829.72
2023-03-29T14:15:54.815Z,100864.56
2023-03-29T14:19:04.164Z,100828.84
2023-03-29T14:22:14.199Z,100868.00
2023-03-29T14:25:25.407Z,100878.47
2023-03-29T14:28:29.027Z,100866.25
2023-03-29T14:31:38.659Z,100867.19
2023-03-29T14:34:41.215Z,100812.31
2023-03-29T14:37:49.330Z,100837.50
2023-03-29T14:40:52.637Z,100852.16
2023-03-29T14:43:55.601Z,100838.31
2023-03-29T14:46:59.324Z,100826.09
2023-03-29T14:50:03.285Z,100801.75
2023-03-29T14:53:07.447Z,100813.06
2023-03-29T14:56:13.433Z,100848.00
2023-03-29T14:59:41.973Z,100839.19
2023-03-29T15:02:55.080Z,100845.28
2023-03-29T15:06:04.413Z,100831.41
2023-03-29T15:09:07.191Z,100814.91
2023-03-29T15:12:16.826Z,100760.00
2023-03-29T15:15:20.504Z,100810.47
2023-03-29T15:18:35.080Z,100839.22
2023-03-29T15:21:39.463Z,100812.28
2023-03-29T15:24:48.540Z,100785.31
2023-03-29T15:28:00.985Z,100798.38
2023-03-29T15:31:19.773Z,100778.34
2023-03-29T15:34:30.968Z,100767.91
2023-03-29T15:37:32.811Z,100758.31
2023-03-29T15:40:36.008Z,100807.97
2023-03-29T15:43:38.968Z,100799.31
2023-03-29T15:46:42.463Z,100799.34
2023-03-29T15:49:47.324Z,100801.16
2023-03-29T15:52:50.150Z,100805.53
2023-03-29T15:55:55.742Z,100759.41
2023-03-29T15:58:58.688Z,100822.09
2023-03-29T16:02:01.318Z,100742.06
2023-03-29T16:05:03.778Z,100760.34
2023-03-29T16:08:05.626Z,100771.72
2023-03-29T16:11:07.650Z,100824.84
2023-03-29T16:14:20.940Z,100817.91
2023-03-29T16:17:23.788Z,100830.13
2023-03-29T16:20:26.613Z,100827.53
2023-03-29T16:23:29.568Z,100727.38
2023-03-29T16:26:32.630Z,100777.91
2023-03-29T16:29:35.571Z,100771.81
2023-03-29T16:32:39.529Z,100812.78
2023-03-29T16:35:42.097Z,100772.69
2023-03-29T16:38:44.892Z,100812.78
2023-03-29T16:41:48.982Z,100835.47
2023-03-29T16:44:52.570Z,100811.03
2023-03-29T16:47:56.191Z,100835.44
2023-03-29T16:50:59.032Z,100812.75
2023-03-29T16:54:01.825Z,100780.41
2023-03-29T16:57:04.738Z,100811.78
2023-03-29T17:00:12.039Z,100819.56
2023-03-29T17:03:14.399Z,100769.81
2023-03-29T17:06:16.356Z,100772.34
2023-03-29T17:09:19.205Z,100813.28
2023-03-29T17:12:23.352Z,100831.47
2023-03-29T17:15:25.089Z,100821.84
2023-03-29T17:18:28.141Z,100848.78
2023-03-29T17:21:30.859Z,100854.84
2023-03-29T17:24:33.666Z,100831.16
2023-03-29T17:27:41.034Z,100820.53
2023-03-29T17:30:46.835Z,100863.28
2023-03-29T17:33:52.470Z,100830.88
2023-03-29T17:36:57.861Z,100794.94
2023-03-29T17:39:59.808Z,100843.78
2023-03-29T17:43:01.622Z,100814.06
2023-03-29T17:46:03.905Z,100868.13
2023-03-29T17:49:07.347Z,100817.38
2023-03-29T17:52:09.643Z,100813.88
2023-03-29T17:55:14.221Z,100860.97
2023-03-29T17:58:17.282Z,100881.03
2023-03-29T18:01:21.537Z,100880.06
2023-03-29T18:04:24.404Z,100821.56
2023-03-29T18:07:30.436Z,100836.31
2023-03-29T18:10:33.243Z,100897.47
2023-03-29T18:13:36.278Z,100902.63
2023-03-29T18:16:39.532Z,100851.88
2023-03-29T18:19:44.965Z,100913.88
2023-03-29T18:22:46.852Z,100864.91
2023-03-29T18:25:50.018Z,100896.34
2023-03-29T18:28:52.527Z,100889.28
2023-03-29T18:31:57.193Z,100880.50
2023-03-29T18:34:59.310Z,100892.69
2023-03-29T18:38:03.854Z,100879.59
2023-03-29T18:41:06.939Z,100922.38
2023-03-29T18:44:11.226Z,100895.16
2023-03-29T18:47:14.617Z,100908.25
2023-03-29T18:50:17.537Z,100893.31
2023-03-29T18:53:20.249Z,100851.22
2023-03-29T18:56:22.101Z,100875.63
2023-03-29T18:59:25.004Z,100948.94
2023-03-29T19:02:29.706Z,100944.53
2023-03-29T19:05:41.284Z,100925.09
2023-03-29T19:08:45.934Z,100931.13
2023-03-29T19:11:51.876Z,100949.41
2023-03-29T19:14:54.878Z,100926.56
2023-03-29T19:17:57.835Z,100888.03
2023-03-29T19:21:00.312Z,100936.94
2023-03-29T19:24:05.560Z,100907.19
2023-03-29T19:27:09.247Z,100926.28
2023-03-29T19:30:14.123Z,100940.19
2023-03-29T19:33:17.121Z,100936.59
2023-03-29T19:36:19.720Z,100964.53
2023-03-29T19:39:25.302Z,100909.31
2023-03-29T19:42:28.461Z,100932.97
2023-03-29T19:45:32.500Z,100905.66
2023-03-29T19:48:38.087Z,100933.66
2023-03-29T19:51:41.991Z,100965.03
2023-03-29T19:54:44.911Z,100896.78
2023-03-29T19:57:47.824Z,100918.59
2023-03-29T20:00:55.896Z,100956.13
2023-03-29T20:03:58.785Z,100951.06
2023-03-29T20:07:01.051Z,100942.94
2023-03-29T20:10:04.383Z,100933.19
2023-03-29T20:13:06.801Z,100904.91
2023-03-29T20:16:12.873Z,100967.09
2023-03-29T20:19:17.941Z,100932.03
2023-03-29T20:22:20.258Z,100954.56
2023-03-29T20:25:23.106Z,100965.13
2023-03-29T20:28:26.320Z,100938.81
2023-03-29T20:31:30.119Z,100965.00
2023-03-29T20:34:41.595Z,100967.50
2023-03-29T20:37:44.048Z,100893.81
2023-03-29T20:40:53.357Z,100983.09
2023-03-29T20:44:07.049Z,100948.09
2023-03-29T20:47:25.680Z,100933.19
2023-03-29T20:50:28.315Z,100966.69
2023-03-29T20:53:34.238Z,100971.69
2023-03-29T20:56:39.824Z,100954.06
2023-03-29T20:59:44.336Z,100878.56
2023-03-29T21:03:11.673Z,100937.19
2023-03-29T22:08:22.103Z,100896.78
